Bloomington, Nebraska
Current Conditions -  °F | °C
As of 2:55 AM on Saturday 01 Nov 2014 (Local Time) from KHDE Reporting Station
Clear Clear  
Wind Chill: 21°   Ceiling: Unl
Heat Index: 31°   Visibility: 10mi
Dew Point: 16°   Wind: 13mph
Humidity: 55%   Direction: 150°SSE
Pressure: 30.28"   Gusts: 20mph
Location:  40.09°N, 99.04°W
Report Text: KHDE 010755Z AUTO 15011G17KT 10SM CLR M01/M09 A3028 RMK AO2 T10061087
Loading
Personal Weather Stations






























Interactive Weather Map
Tropical Storm Tracking
New forecast layout! Learn more

10-Day Weather Forecast

Advertisements
Track Severe Weather on mobile